Hlavní strana
METAR-TAF:

METAR-TAF

Letiště :

Borlänge, Švédsko

zeměpisná šířka: 60-26N, zeměpisná délka: 015-31E, výška: 145 m

Aktuální stav počasí

Zpráva byla vytvořena před 15 minutami, v 12:20 UTC
Západní vítr 10 kt
Teplota 9°C
Vlhkost vzduchu 43%
Tlak 1023 hPa
Viditelnost 10 km a více
Žádná oblačnost pod 1500 m, nevyskytují se cumulonimby.

METAR: ESSD 011220Z 26010KT CAVOK 09/M03 Q1023

Čas: 13:35 (12:35 UTC)

Předpověď počasí

Zpráva byla vytvořena před 1 hodinou a 5 minutami, v 11:30 UTC
Předpověď platná od 01 v 12 UTC do 01 v 15 UTC
Západní vítr 9 kt
Viditelnost 10 km a více
Žádná oblačnost pod 1500 m, nevyskytují se cumulonimby.

TAF: ESSD 011130Z 0112/0115 27009KT CAVOK

Stav a předpovědi počasí z více než 4 000 letišť (zprávy METAR a TAF).

Červené a žluté tečky na mapě představují dostupné meteorologické stanice.

Když kurzor umístíte na tečku, zobrazí se název stanice.

Pak kliknutím zobrazíte stav a předpověď počasí.

Chcete-li změnit mapu, kliknutím na zelené tlačítko se znaménkem +mapu přiblížíte, kliknutím na zelené tlačítko se znaménkem – mapu oddálíte a kliknutím na zelené šipky přejdete na sousední mapy.


METAR-TAF: